createdAt,value
2018-11-05T00:00:19.231Z,11.55
2018-11-05T00:02:49.717Z,11.59
2018-11-05T00:05:18.627Z,11.54
2018-11-05T00:07:47.525Z,11.55
2018-11-05T00:10:16.411Z,11.56
2018-11-05T00:12:45.203Z,11.58
2018-11-05T00:15:14.028Z,11.61
2018-11-05T00:17:43.136Z,11.59
2018-11-05T00:20:12.691Z,11.56
2018-11-05T00:22:41.532Z,11.59
2018-11-05T00:25:12.190Z,11.57
2018-11-05T00:27:41.430Z,11.63
2018-11-05T00:30:12.136Z,11.62
2018-11-05T00:32:41.418Z,11.62
2018-11-05T00:35:10.346Z,11.62
2018-11-05T00:37:39.495Z,11.62
2018-11-05T00:40:13.902Z,11.62
2018-11-05T00:42:43.424Z,11.63
2018-11-05T00:45:13.135Z,11.64
2018-11-05T00:47:42.636Z,11.59
2018-11-05T00:50:13.093Z,11.59
2018-11-05T00:52:41.961Z,11.60
2018-11-05T00:55:11.548Z,11.54
2018-11-05T00:57:40.471Z,11.54
2018-11-05T01:00:12.115Z,11.56
2018-11-05T01:02:41.610Z,11.60
2018-11-05T01:05:11.915Z,11.57
2018-11-05T01:07:41.371Z,11.55
2018-11-05T01:10:11.286Z,11.54
2018-11-05T01:12:40.280Z,11.55
2018-11-05T01:15:11.941Z,11.52
2018-11-05T01:17:40.903Z,11.59
2018-11-05T01:20:11.156Z,11.56
2018-11-05T01:22:40.146Z,11.54
2018-11-05T01:25:09.068Z,11.57
2018-11-05T01:27:37.925Z,11.57
2018-11-05T01:30:08.758Z,11.59
2018-11-05T01:32:37.672Z,11.60
2018-11-05T01:35:07.614Z,11.55
2018-11-05T01:37:36.494Z,11.54
2018-11-05T01:40:07.300Z,11.58
2018-11-05T01:42:36.348Z,11.66
2018-11-05T01:45:06.545Z,11.64
2018-11-05T01:47:35.381Z,11.62
2018-11-05T01:50:04.273Z,11.60
2018-11-05T01:52:33.085Z,11.59
2018-11-05T01:55:02.198Z,11.56
2018-11-05T01:57:31.080Z,11.58
2018-11-05T02:00:00.067Z,11.63
2018-11-05T02:02:29.055Z,11.58
2018-11-05T02:05:04.461Z,11.62
2018-11-05T02:07:33.357Z,11.61
2018-11-05T02:10:02.502Z,11.61
2018-11-05T02:12:31.708Z,11.64
2018-11-05T02:15:00.821Z,11.64
2018-11-05T02:17:29.842Z,11.67
2018-11-05T02:19:58.647Z,11.66
2018-11-05T02:22:27.563Z,11.68
2018-11-05T02:24:56.427Z,11.67
2018-11-05T02:27:25.406Z,11.73
2018-11-05T02:29:54.566Z,11.72
2018-11-05T02:32:23.440Z,11.72
2018-11-05T02:34:52.662Z,11.73
2018-11-05T02:37:21.858Z,11.76
2018-11-05T02:39:50.661Z,11.76
2018-11-05T02:42:19.611Z,11.78
2018-11-05T02:44:48.738Z,11.80
2018-11-05T02:47:23.773Z,11.79
2018-11-05T02:49:52.722Z,11.78
2018-11-05T02:52:21.914Z,11.72
2018-11-05T02:54:50.836Z,11.73
2018-11-05T02:57:19.734Z,11.72
2018-11-05T02:59:48.612Z,11.68
2018-11-05T03:02:17.604Z,11.67
2018-11-05T03:04:46.446Z,11.66
2018-11-05T03:07:15.332Z,11.66
2018-11-05T03:09:44.187Z,11.68
2018-11-05T03:12:13.113Z,11.67
2018-11-05T03:14:41.928Z,11.69
2018-11-05T03:17:10.780Z,11.72
2018-11-05T03:19:39.680Z,11.72
2018-11-05T03:22:08.515Z,11.73
2018-11-05T03:24:37.411Z,11.70
2018-11-05T03:27:06.654Z,11.73
2018-11-05T03:29:35.763Z,11.66
2018-11-05T03:32:04.666Z,11.64
2018-11-05T03:34:33.503Z,11.70
2018-11-05T03:37:02.410Z,11.66
2018-11-05T03:39:31.568Z,11.63
2018-11-05T03:42:00.424Z,11.64
2018-11-05T03:44:29.263Z,11.68
2018-11-05T03:46:58.066Z,11.66
2018-11-05T03:49:26.935Z,11.74
2018-11-05T03:51:56.110Z,11.73
2018-11-05T03:54:24.987Z,11.73
2018-11-05T03:56:54.214Z,11.74
2018-11-05T03:59:23.021Z,11.64
2018-11-05T04:01:51.959Z,11.65
2018-11-05T04:04:20.865Z,11.70
2018-11-05T04:06:49.703Z,11.69
2018-11-05T04:09:18.961Z,11.66
2018-11-05T04:11:48.105Z,11.68
2018-11-05T04:14:16.909Z,11.71
2018-11-05T04:16:46.141Z,11.73
2018-11-05T04:19:15.027Z,11.75
2018-11-05T04:21:44.945Z,11.74
2018-11-05T04:24:15.048Z,11.71
2018-11-05T04:26:45.138Z,11.73
2018-11-05T04:29:14.545Z,11.69
2018-11-05T04:31:43.720Z,11.67
2018-11-05T04:34:12.578Z,11.66
2018-11-05T04:36:41.748Z,11.65
2018-11-05T04:39:15.548Z,11.68
2018-11-05T04:41:44.984Z,11.68
2018-11-05T04:44:13.866Z,11.71
2018-11-05T04:46:42.850Z,11.72
2018-11-05T04:49:11.691Z,11.65
2018-11-05T04:51:40.497Z,11.65
2018-11-05T04:54:09.557Z,11.65
2018-11-05T04:56:38.351Z,11.63
2018-11-05T04:59:07.922Z,11.58
2018-11-05T05:01:36.853Z,11.63
2018-11-05T05:04:05.726Z,11.61
2018-11-05T05:06:34.741Z,11.57
2018-11-05T05:09:03.769Z,11.60
2018-11-05T05:11:32.988Z,11.58
2018-11-05T05:14:01.883Z,11.60
2018-11-05T05:16:31.038Z,11.61
2018-11-05T05:19:00.245Z,11.54
2018-11-05T05:21:28.993Z,11.54
2018-11-05T05:23:57.822Z,11.55
2018-11-05T05:26:26.879Z,11.63
2018-11-05T05:28:55.745Z,11.59
2018-11-05T05:31:24.794Z,11.56
2018-11-05T05:33:53.627Z,11.56
2018-11-05T05:36:22.505Z,11.59
2018-11-05T05:38:51.451Z,11.57
2018-11-05T05:41:20.665Z,11.53
2018-11-05T05:43:49.463Z,11.53
2018-11-05T05:46:18.642Z,11.54
2018-11-05T05:48:47.487Z,11.57
2018-11-05T05:51:16.847Z,11.53
2018-11-05T05:53:46.037Z,11.53
2018-11-05T05:56:14.900Z,11.52
2018-11-05T05:58:43.796Z,11.53
2018-11-05T06:01:12.747Z,11.54
2018-11-05T06:03:41.942Z,11.56
2018-11-05T06:06:10.895Z,11.58
2018-11-05T06:08:39.915Z,11.59
2018-11-05T06:11:08.702Z,11.58
2018-11-05T06:13:37.510Z,11.58
2018-11-05T06:16:06.692Z,11.54
2018-11-05T06:18:36.069Z,11.53
2018-11-05T06:21:04.953Z,11.53
2018-11-05T06:23:33.799Z,11.52
2018-11-05T06:26:02.955Z,11.52
2018-11-05T06:28:31.969Z,11.54
2018-11-05T06:31:00.742Z,11.53
2018-11-05T06:33:29.536Z,11.57
2018-11-05T06:35:58.832Z,11.58
2018-11-05T06:38:27.666Z,11.52
2018-11-05T06:40:56.544Z,11.53
2018-11-05T06:43:25.369Z,11.53
2018-11-05T06:45:54.519Z,11.54
2018-11-05T06:48:23.462Z,11.60
2018-11-05T06:50:52.299Z,11.58
2018-11-05T06:53:21.345Z,11.57
2018-11-05T06:55:50.250Z,11.57
2018-11-05T06:58:19.152Z,11.62
2018-11-05T07:00:48.052Z,11.60
2018-11-05T07:03:17.256Z,11.59
2018-11-05T07:05:46.713Z,11.61
2018-11-05T07:08:15.817Z,11.56
2018-11-05T07:10:45.074Z,11.58
2018-11-05T07:13:13.865Z,11.58
2018-11-05T07:15:42.715Z,11.61
2018-11-05T07:18:11.649Z,11.62
2018-11-05T07:20:40.464Z,11.64
2018-11-05T07:23:09.421Z,11.67
2018-11-05T07:25:38.321Z,11.76
2018-11-05T07:28:07.256Z,11.71
2018-11-05T07:30:36.404Z,11.74
2018-11-05T07:33:05.917Z,11.68
2018-11-05T07:35:34.771Z,11.67
2018-11-05T07:38:03.771Z,11.71
2018-11-05T07:40:32.583Z,11.67
2018-11-05T07:43:01.469Z,11.70
2018-11-05T07:45:30.333Z,11.73
2018-11-05T07:47:59.197Z,11.71
2018-11-05T07:50:28.318Z,11.75
2018-11-05T07:52:57.555Z,11.84
2018-11-05T07:55:26.751Z,11.89
2018-11-05T07:57:55.558Z,11.89
2018-11-05T08:00:29.502Z,11.87
2018-11-05T08:02:58.628Z,11.90
2018-11-05T08:05:27.452Z,11.81
2018-11-05T08:07:56.304Z,11.81
2018-11-05T08:10:25.073Z,11.80
2018-11-05T08:12:53.867Z,11.85
2018-11-05T08:15:24.783Z,11.84
2018-11-05T08:17:54.244Z,11.92
2018-11-05T08:20:23.060Z,11.95
2018-11-05T08:22:51.993Z,12.02
2018-11-05T08:25:20.808Z,12.00
2018-11-05T08:27:49.708Z,12.06
2018-11-05T08:30:20.741Z,12.07
2018-11-05T08:32:49.589Z,12.12
2018-11-05T08:35:18.721Z,12.21
2018-11-05T08:37:48.459Z,12.34
2018-11-05T08:40:19.436Z,12.47
2018-11-05T08:42:49.470Z,12.49
2018-11-05T08:45:19.591Z,12.42
2018-11-05T08:47:48.889Z,12.37
2018-11-05T08:50:19.086Z,12.49
2018-11-05T08:52:47.963Z,12.48
2018-11-05T08:55:18.163Z,12.38
2018-11-05T08:57:47.262Z,12.35
2018-11-05T09:00:22.313Z,12.33
2018-11-05T09:02:52.039Z,12.40
2018-11-05T09:05:22.272Z,12.41
2018-11-05T09:07:52.206Z,12.52
2018-11-05T09:10:21.506Z,12.43
2018-11-05T09:12:50.514Z,12.33
2018-11-05T09:15:20.517Z,12.33
2018-11-05T09:17:49.597Z,12.25
2018-11-05T09:20:19.167Z,12.29
2018-11-05T09:22:48.791Z,12.42
2018-11-05T09:25:17.942Z,12.45
2018-11-05T09:27:46.951Z,12.57
2018-11-05T09:30:17.436Z,12.64
2018-11-05T09:32:47.061Z,12.70
2018-11-05T09:35:16.194Z,12.62
2018-11-05T09:37:45.123Z,12.52
2018-11-05T09:40:18.155Z,12.44
2018-11-05T09:42:48.173Z,12.37
2018-11-05T09:45:20.925Z,12.34
2018-11-05T09:47:50.602Z,12.38
2018-11-05T09:50:20.054Z,12.40
2018-11-05T09:52:48.974Z,12.41
2018-11-05T09:55:17.939Z,12.42
2018-11-05T09:57:46.962Z,12.49
2018-11-05T10:00:18.839Z,12.60
2018-11-05T10:02:53.281Z,12.64
2018-11-05T10:05:22.321Z,12.74
2018-11-05T10:07:51.693Z,12.80
2018-11-05T10:10:20.882Z,12.93
2018-11-05T10:12:49.957Z,13.01
2018-11-05T10:15:19.613Z,13.16
2018-11-05T10:17:48.527Z,13.30
2018-11-05T10:20:22.564Z,13.38
2018-11-05T10:22:51.458Z,13.39
2018-11-05T10:25:21.019Z,13.35
2018-11-05T10:27:51.107Z,13.43
2018-11-05T10:30:21.458Z,13.50
2018-11-05T10:32:50.814Z,13.60
2018-11-05T10:35:19.960Z,13.65
2018-11-05T10:37:48.804Z,13.66
2018-11-05T10:40:19.473Z,13.54
2018-11-05T10:42:49.119Z,13.57
2018-11-05T10:45:18.821Z,13.57
2018-11-05T10:47:47.741Z,13.54
2018-11-05T10:50:17.727Z,13.63
2018-11-05T10:52:48.847Z,13.68
2018-11-05T10:55:18.125Z,13.81
2018-11-05T10:57:47.394Z,13.92
2018-11-05T11:00:22.688Z,13.84
2018-11-05T11:02:56.742Z,13.93
2018-11-05T11:05:26.296Z,13.97
2018-11-05T11:07:56.310Z,13.98
2018-11-05T11:10:25.991Z,14.02
2018-11-05T11:12:54.849Z,14.10
2018-11-05T11:15:23.930Z,14.14
2018-11-05T11:17:53.274Z,14.13
2018-11-05T11:20:22.188Z,14.18
2018-11-05T11:22:51.012Z,14.24
2018-11-05T11:25:19.971Z,14.33
2018-11-05T11:27:49.198Z,14.27
2018-11-05T11:30:18.399Z,14.32
2018-11-05T11:32:47.964Z,14.37
2018-11-05T11:35:17.148Z,14.44
2018-11-05T11:37:46.009Z,14.50
2018-11-05T11:40:17.262Z,14.59
2018-11-05T11:42:47.590Z,14.53
2018-11-05T11:45:17.545Z,14.53
2018-11-05T11:47:46.918Z,14.49
2018-11-05T11:50:17.676Z,14.49
2018-11-05T11:52:46.639Z,14.47
2018-11-05T11:55:17.855Z,14.49
2018-11-05T11:57:46.796Z,14.56
2018-11-05T12:00:23.183Z,14.61
2018-11-05T12:02:52.732Z,14.68
2018-11-05T12:05:21.760Z,14.72
2018-11-05T12:07:50.541Z,14.80
2018-11-05T12:10:22.580Z,14.91
2018-11-05T12:12:51.434Z,14.95
2018-11-05T12:15:21.248Z,15.01
2018-11-05T12:17:51.415Z,15.02
2018-11-05T12:20:21.848Z,15.07
2018-11-05T12:22:51.283Z,15.09
2018-11-05T12:25:20.846Z,15.19
2018-11-05T12:27:49.616Z,15.22
2018-11-05T12:30:20.121Z,15.24
2018-11-05T12:32:49.758Z,15.26
2018-11-05T12:35:18.720Z,15.24
2018-11-05T12:37:48.820Z,15.22
2018-11-05T12:40:18.880Z,15.10
2018-11-05T12:42:48.836Z,15.02
2018-11-05T12:45:18.097Z,14.96
2018-11-05T12:47:47.033Z,14.89
2018-11-05T12:50:21.134Z,14.88
2018-11-05T12:52:51.435Z,14.82
2018-11-05T12:55:20.220Z,14.79
2018-11-05T12:57:49.727Z,14.74
2018-11-05T13:00:25.924Z,14.72
2018-11-05T13:02:55.858Z,14.68
2018-11-05T13:05:25.815Z,14.64
2018-11-05T13:07:54.723Z,14.64
2018-11-05T13:10:23.753Z,14.66
2018-11-05T13:12:53.089Z,14.68
2018-11-05T13:15:22.116Z,14.69
2018-11-05T13:17:51.084Z,14.68
2018-11-05T13:20:21.826Z,14.71
2018-11-05T13:22:50.792Z,14.72
2018-11-05T13:25:19.591Z,14.74
2018-11-05T13:27:55.007Z,14.76
2018-11-05T13:30:26.843Z,14.79
2018-11-05T13:32:55.811Z,14.80
2018-11-05T13:35:25.149Z,14.80
2018-11-05T13:37:54.731Z,14.73
2018-11-05T13:40:23.671Z,14.72
2018-11-05T13:42:53.049Z,14.75
2018-11-05T13:45:22.999Z,14.76
2018-11-05T13:47:53.169Z,14.73
2018-11-05T13:50:21.328Z,14.71
2018-11-05T13:52:49.958Z,14.70
2018-11-05T13:55:18.924Z,14.58
2018-11-05T13:57:48.731Z,14.53
2018-11-05T14:00:19.794Z,14.47
2018-11-05T14:02:48.888Z,14.42
2018-11-05T14:05:17.745Z,14.36
2018-11-05T14:07:46.888Z,14.38
2018-11-05T14:10:18.496Z,14.34
2018-11-05T14:12:48.208Z,14.30
2018-11-05T14:15:17.345Z,14.28
2018-11-05T14:17:46.448Z,14.25
2018-11-05T14:20:16.417Z,14.22
2018-11-05T14:22:45.321Z,14.21
2018-11-05T14:25:16.813Z,14.23
2018-11-05T14:27:47.135Z,14.20
2018-11-05T14:30:16.236Z,14.18
2018-11-05T14:32:46.273Z,14.16
2018-11-05T14:35:15.486Z,14.15
2018-11-05T14:37:44.434Z,14.13
2018-11-05T14:40:14.718Z,14.11
2018-11-05T14:42:43.695Z,14.08
2018-11-05T14:45:15.005Z,14.05
2018-11-05T14:47:44.846Z,14.04
2018-11-05T14:50:15.563Z,14.02
2018-11-05T14:52:44.430Z,14.00
2018-11-05T14:55:15.162Z,13.98
2018-11-05T14:57:44.884Z,13.95
2018-11-05T15:00:18.911Z,13.93
2018-11-05T15:02:48.569Z,13.90
2018-11-05T15:05:17.696Z,13.86
2018-11-05T15:07:47.365Z,13.81
2018-11-05T15:10:17.616Z,13.77
2018-11-05T15:12:46.462Z,13.75
2018-11-05T15:15:15.826Z,13.74
2018-11-05T15:17:45.111Z,13.69
2018-11-05T15:20:16.876Z,13.66
2018-11-05T15:22:45.500Z,13.63
2018-11-05T15:25:14.730Z,13.63
2018-11-05T15:27:43.596Z,13.58
2018-11-05T15:30:15.755Z,13.55
2018-11-05T15:32:45.005Z,13.51
2018-11-05T15:35:14.053Z,13.49
2018-11-05T15:37:43.394Z,13.46
2018-11-05T15:40:14.301Z,13.42
2018-11-05T15:42:43.172Z,13.37
2018-11-05T15:45:13.424Z,13.33
2018-11-05T15:47:42.724Z,13.30
2018-11-05T15:50:14.240Z,13.27
2018-11-05T15:52:43.407Z,13.24
2018-11-05T15:55:12.566Z,13.24
2018-11-05T15:57:41.800Z,13.29
2018-11-05T16:00:17.694Z,13.24
2018-11-05T16:02:48.827Z,13.26
2018-11-05T16:05:17.769Z,13.28
2018-11-05T16:07:46.943Z,13.28
2018-11-05T16:10:15.986Z,13.28
2018-11-05T16:12:44.885Z,13.28
2018-11-05T16:15:14.131Z,13.28
2018-11-05T16:17:43.187Z,13.27
2018-11-05T16:20:13.993Z,13.23
2018-11-05T16:22:43.293Z,13.19
2018-11-05T16:25:12.267Z,13.16
2018-11-05T16:27:41.376Z,13.15
2018-11-05T16:30:12.515Z,13.12
2018-11-05T16:32:41.982Z,13.10
2018-11-05T16:35:10.925Z,13.09
2018-11-05T16:37:39.996Z,13.07
2018-11-05T16:40:13.255Z,13.06
2018-11-05T16:42:42.827Z,13.04
2018-11-05T16:45:11.998Z,13.05
2018-11-05T16:47:41.586Z,13.04
2018-11-05T16:50:14.728Z,13.04
2018-11-05T16:52:43.558Z,13.01
2018-11-05T16:55:13.848Z,13.00
2018-11-05T16:57:43.329Z,12.97
2018-11-05T17:00:12.636Z,12.97
2018-11-05T17:02:42.124Z,12.98
2018-11-05T17:05:10.968Z,13.00
2018-11-05T17:07:40.114Z,12.98
2018-11-05T17:10:10.745Z,12.97
2018-11-05T17:12:39.747Z,12.97
2018-11-05T17:15:10.578Z,12.97
2018-11-05T17:17:39.841Z,12.98
2018-11-05T17:20:10.935Z,12.97
2018-11-05T17:22:40.254Z,12.93
2018-11-05T17:25:09.693Z,12.92
2018-11-05T17:27:38.689Z,12.94
2018-11-05T17:30:10.417Z,12.93
2018-11-05T17:32:39.374Z,12.91
2018-11-05T17:35:08.190Z,12.90
2018-11-05T17:37:37.157Z,12.89
2018-11-05T17:40:07.600Z,12.85
2018-11-05T17:42:36.728Z,12.88
2018-11-05T17:45:06.982Z,12.88
2018-11-05T17:47:35.963Z,12.86
2018-11-05T17:50:05.134Z,12.86
2018-11-05T17:52:34.151Z,12.84
2018-11-05T17:55:03.077Z,12.85
2018-11-05T17:57:32.711Z,12.88
2018-11-05T18:00:01.601Z,12.89
2018-11-05T18:02:30.593Z,12.90
2018-11-05T18:04:59.513Z,12.93
2018-11-05T18:07:29.095Z,12.92
2018-11-05T18:09:58.000Z,12.95
2018-11-05T18:12:27.151Z,12.90
2018-11-05T18:14:56.196Z,12.89
2018-11-05T18:17:25.066Z,12.88
2018-11-05T18:19:54.185Z,12.88
2018-11-05T18:22:23.238Z,12.85
2018-11-05T18:24:52.203Z,12.90
2018-11-05T18:27:21.440Z,12.87
2018-11-05T18:29:50.566Z,12.84
2018-11-05T18:32:21.605Z,12.85
2018-11-05T18:34:52.145Z,12.84
2018-11-05T18:37:21.588Z,12.88
2018-11-05T18:39:50.745Z,12.83
2018-11-05T18:42:19.612Z,12.86
2018-11-05T18:44:48.402Z,12.90
2018-11-05T18:47:17.571Z,12.87
2018-11-05T18:49:46.880Z,12.83
2018-11-05T18:52:15.381Z,12.83
2018-11-05T18:54:44.501Z,12.82
2018-11-05T18:57:13.507Z,12.82
2018-11-05T18:59:42.610Z,12.83
2018-11-05T19:02:15.635Z,12.79
2018-11-05T19:04:44.822Z,12.75
2018-11-05T19:07:13.750Z,12.73
2018-11-05T19:09:42.858Z,12.70
2018-11-05T19:12:11.836Z,12.67
2018-11-05T19:14:40.685Z,12.69
2018-11-05T19:17:09.622Z,12.70
2018-11-05T19:19:38.605Z,12.65
2018-11-05T19:22:07.702Z,12.62
2018-11-05T19:24:37.210Z,12.64
2018-11-05T19:27:06.583Z,12.60
2018-11-05T19:29:35.583Z,12.60
2018-11-05T19:32:04.548Z,12.57
2018-11-05T19:34:33.539Z,12.55
2018-11-05T19:37:03.135Z,12.55
2018-11-05T19:39:32.491Z,12.55
2018-11-05T19:42:01.737Z,12.54
2018-11-05T19:44:30.915Z,12.52
2018-11-05T19:46:59.918Z,12.51
2018-11-05T19:49:29.178Z,12.49
2018-11-05T19:51:58.327Z,12.47
2018-11-05T19:54:27.687Z,12.45
2018-11-05T19:56:56.565Z,12.44
2018-11-05T19:59:26.585Z,12.43
2018-11-05T20:01:55.661Z,12.40
2018-11-05T20:04:24.464Z,12.40
2018-11-05T20:06:53.411Z,12.40
2018-11-05T20:09:24.317Z,12.40
2018-11-05T20:11:53.533Z,12.37
2018-11-05T20:14:22.503Z,12.40
2018-11-05T20:16:51.447Z,12.36
2018-11-05T20:19:20.516Z,12.32
2018-11-05T20:21:49.259Z,12.31
2018-11-05T20:24:18.464Z,12.28
2018-11-05T20:26:47.659Z,12.26
2018-11-05T20:29:16.597Z,12.25
2018-11-05T20:31:46.028Z,12.23
2018-11-05T20:34:14.894Z,12.23
2018-11-05T20:36:43.569Z,12.20
2018-11-05T20:39:12.880Z,12.18
2018-11-05T20:41:42.019Z,12.16
2018-11-05T20:44:10.978Z,12.13
2018-11-05T20:46:40.266Z,12.12
2018-11-05T20:49:09.162Z,12.11
2018-11-05T20:51:38.002Z,12.10
2018-11-05T20:54:07.671Z,12.09
2018-11-05T20:56:36.555Z,12.09
2018-11-05T20:59:05.484Z,12.10
2018-11-05T21:01:34.390Z,12.13
2018-11-05T21:04:03.645Z,12.15
2018-11-05T21:06:33.048Z,12.15
2018-11-05T21:09:02.420Z,12.15
2018-11-05T21:11:32.822Z,12.11
2018-11-05T21:14:02.173Z,12.12
2018-11-05T21:16:31.111Z,12.11
2018-11-05T21:19:00.715Z,12.09
2018-11-05T21:21:29.756Z,12.06
2018-11-05T21:23:58.574Z,12.07
2018-11-05T21:26:28.409Z,12.09
2018-11-05T21:28:58.044Z,12.10
2018-11-05T21:31:26.929Z,12.03
2018-11-05T21:36:25.125Z,12.04
2018-11-05T21:38:55.088Z,12.05
2018-11-05T21:41:24.004Z,12.04
2018-11-05T21:43:53.319Z,12.05
2018-11-05T21:46:22.701Z,12.02
2018-11-05T21:48:51.946Z,12.01
2018-11-05T21:51:21.437Z,12.02
2018-11-05T21:53:51.172Z,11.99
2018-11-05T21:56:20.347Z,11.98
2018-11-05T21:58:49.751Z,11.98
2018-11-05T22:01:18.839Z,11.98
2018-11-05T22:03:48.834Z,11.98
2018-11-05T22:06:18.155Z,11.98
2018-11-05T22:08:46.969Z,11.98
2018-11-05T22:11:16.034Z,11.95
2018-11-05T22:13:46.410Z,11.91
2018-11-05T22:16:15.232Z,11.91
2018-11-05T22:18:44.252Z,11.90
2018-11-05T22:21:13.506Z,11.93
2018-11-05T22:23:42.499Z,11.96
2018-11-05T22:26:11.677Z,11.96
2018-11-05T22:28:41.202Z,11.97
2018-11-05T22:31:10.007Z,11.99
2018-11-05T22:33:39.255Z,11.99
2018-11-05T22:36:08.437Z,12.02
2018-11-05T22:38:37.641Z,12.06
2018-11-05T22:41:07.314Z,12.08
2018-11-05T22:43:36.233Z,12.05
2018-11-05T22:46:05.044Z,12.05
2018-11-05T22:48:33.807Z,12.02
2018-11-05T22:51:02.628Z,12.06
2018-11-05T22:53:31.831Z,12.07
2018-11-05T22:56:01.117Z,12.05
2018-11-05T22:58:30.436Z,12.04
2018-11-05T23:01:06.215Z,12.03
2018-11-05T23:03:35.342Z,12.03
2018-11-05T23:06:04.269Z,12.02
2018-11-05T23:08:33.183Z,12.01
2018-11-05T23:11:02.049Z,11.99
2018-11-05T23:13:30.930Z,12.02
2018-11-05T23:15:59.812Z,11.98
2018-11-05T23:18:28.647Z,12.02
2018-11-05T23:20:57.838Z,12.00
2018-11-05T23:23:27.008Z,11.99
2018-11-05T23:25:56.022Z,12.03
2018-11-05T23:28:25.236Z,12.03
2018-11-05T23:30:54.126Z,12.04
2018-11-05T23:33:23.309Z,11.99
2018-11-05T23:35:52.124Z,12.00
2018-11-05T23:38:21.171Z,11.98
2018-11-05T23:40:50.130Z,11.99
2018-11-05T23:43:19.006Z,12.00
2018-11-05T23:45:48.942Z,11.97
2018-11-05T23:48:19.128Z,11.97
2018-11-05T23:50:48.002Z,11.92
2018-11-05T23:53:17.094Z,11.89
2018-11-05T23:55:45.975Z,11.89
2018-11-05T23:58:15.049Z,11.87
